Time;durP1;ratioP1;P1;durP2;ratioP2;P2;SDS_P1;SDS_P2;PMS_P1;PMS_P2;Temp;Humidity;BMP_temperature;BMP_pressure;BME280_temperature;BME280_humidity;BME280_pressure;Samples;Min_cycle;Max_cycle;Signal;HPM_P1;HPM_P2
2022/08/22 00:03:34;;;;;;;;;;;19.60;99.90;;;;;;8424634;28;19927;-69
2022/08/22 00:07:42;;;;;;;;;;;19.60;99.90;;;;;;8408877;28;19919;-69
2022/08/22 00:11:49;;;;;;;;;;;19.60;99.90;;;;;;8415989;28;19936;-69
2022/08/22 00:15:54;;;;;;;;;;;19.60;99.90;;;;;;8430181;28;19920;-69
2022/08/22 00:20:18;;;;;;;;;;;19.50;99.90;;;;;;8414095;28;19921;-69
2022/08/22 00:24:19;;;;;;;;;;;19.50;99.90;;;;;;8420244;28;19927;-69
2022/08/22 00:28:35;;;;;;;;;;;19.50;99.90;;;;;;8426731;28;19920;-69
2022/08/22 00:33:00;;;;;;;;;;;19.50;99.90;;;;;;8410769;28;19921;-69
2022/08/22 00:37:27;;;;;;;;;;;19.40;99.90;;;;;;8382678;28;19920;-69
2022/08/22 00:41:38;;;;;;;;;;;19.40;99.90;;;;;;8402284;28;19928;-69
2022/08/22 00:45:58;;;;;;;;;;;19.40;99.90;;;;;;8403922;28;19924;-69
2022/08/22 00:50:00;;;;;;;;;;;19.30;99.90;;;;;;8402299;28;19920;-69
2022/08/22 00:54:07;;;;;;;;;;;19.30;99.90;;;;;;8405613;28;19927;-69
2022/08/22 00:58:11;;;;;;;;;;;19.30;99.90;;;;;;8406460;28;19967;-69
2022/08/22 01:02:28;;;;;;;;;;;19.20;99.90;;;;;;8416048;28;19931;-69
2022/08/22 01:06:32;;;;;;;;;;;19.20;99.90;;;;;;8418481;28;19924;-69
2022/08/22 01:10:34;;;;;;;;;;;19.10;99.90;;;;;;8416582;28;20304;-69
2022/08/22 01:14:36;;;;;;;;;;;19.10;99.90;;;;;;8420912;28;19927;-69
2022/08/22 01:18:44;;;;;;;;;;;19.10;99.90;;;;;;8402783;28;20220;-69
2022/08/22 01:22:49;;;;;;;;;;;19.10;99.90;;;;;;8416000;28;19932;-69
2022/08/22 01:26:59;;;;;;;;;;;19.10;99.90;;;;;;8409299;28;19927;-69
2022/08/22 01:31:04;;;;;;;;;;;19.10;99.90;;;;;;8414979;28;19927;-69
2022/08/22 01:35:12;;;;;;;;;;;19.10;99.90;;;;;;8420135;28;19995;-69
2022/08/22 01:39:25;;;;;;;;;;;19.00;99.90;;;;;;8414565;28;19924;-69
2022/08/22 01:43:34;;;;;;;;;;;19.00;99.90;;;;;;8414598;28;19931;-69
2022/08/22 01:47:59;;;;;;;;;;;19.00;99.90;;;;;;8409293;28;19927;-69
2022/08/22 01:52:01;;;;;;;;;;;19.00;99.90;;;;;;8413361;28;19927;-69
2022/08/22 01:56:06;;;;;;;;;;;19.00;99.90;;;;;;8422029;28;19919;-69
2022/08/22 02:00:14;;;;;;;;;;;19.00;99.90;;;;;;8410993;28;19923;-69
2022/08/22 02:04:26;;;;;;;;;;;19.00;99.90;;;;;;8417103;28;19924;-69
2022/08/22 02:08:37;;;;;;;;;;;19.00;99.90;;;;;;8419836;28;19920;-69
2022/08/22 02:12:42;;;;;;;;;;;18.90;99.90;;;;;;8408996;28;19943;-69
2022/08/22 02:16:45;;;;;;;;;;;18.90;99.90;;;;;;8411953;28;19920;-70
2022/08/22 02:20:47;;;;;;;;;;;18.90;99.90;;;;;;8412039;28;19934;-69
2022/08/22 02:25:08;;;;;;;;;;;18.90;99.90;;;;;;8417159;28;19923;-69
2022/08/22 02:29:16;;;;;;;;;;;18.90;99.90;;;;;;8422124;28;20287;-69
2022/08/22 02:33:24;;;;;;;;;;;18.90;99.90;;;;;;8415717;28;19931;-69
2022/08/22 02:37:34;;;;;;;;;;;18.90;99.90;;;;;;8404016;28;19939;-69
2022/08/22 02:41:43;;;;;;;;;;;18.90;99.90;;;;;;8415921;28;19931;-69
2022/08/22 02:46:04;;;;;;;;;;;18.90;99.90;;;;;;8392312;28;19939;-69
2022/08/22 02:50:14;;;;;;;;;;;18.80;99.90;;;;;;8414647;28;20398;-69
2022/08/22 02:54:36;;;;;;;;;;;18.80;99.90;;;;;;8413736;28;19925;-69
2022/08/22 02:58:44;;;;;;;;;;;18.80;99.90;;;;;;8413311;28;20342;-69
2022/08/22 03:02:52;;;;;;;;;;;18.80;99.90;;;;;;8419249;28;19947;-69
2022/08/22 03:06:59;;;;;;;;;;;18.70;99.90;;;;;;8406477;28;19931;-69
2022/08/22 03:11:19;;;;;;;;;;;18.70;99.90;;;;;;8403050;28;20299;-69
2022/08/22 03:15:24;;;;;;;;;;;18.70;99.90;;;;;;8413386;28;19983;-69
2022/08/22 03:19:40;;;;;;;;;;;18.70;99.90;;;;;;8396115;28;19962;-69
2022/08/22 03:23:48;;;;;;;;;;;18.70;99.90;;;;;;8400395;28;19924;-69
2022/08/22 03:27:54;;;;;;;;;;;18.70;99.90;;;;;;8391619;28;19928;-69
2022/08/22 03:32:22;;;;;;;;;;;18.70;99.90;;;;;;8414639;28;20355;-69
2022/08/22 03:36:25;;;;;;;;;;;18.70;99.90;;;;;;8411068;28;19924;-69
2022/08/22 03:40:33;;;;;;;;;;;18.70;99.90;;;;;;8401654;28;19927;-69
2022/08/22 03:44:40;;;;;;;;;;;18.70;99.90;;;;;;8425152;28;20442;-69
2022/08/22 03:49:01;;;;;;;;;;;18.70;99.90;;;;;;8425928;28;19920;-69
2022/08/22 03:53:21;;;;;;;;;;;18.60;99.90;;;;;;8424426;28;20278;-69
2022/08/22 03:57:38;;;;;;;;;;;18.60;99.90;;;;;;8416081;28;20286;-70
2022/08/22 04:01:43;;;;;;;;;;;18.60;99.90;;;;;;8413943;28;19938;-70
2022/08/22 04:06:04;;;;;;;;;;;18.60;99.90;;;;;;8402028;28;19920;-69
2022/08/22 04:10:26;;;;;;;;;;;18.50;99.90;;;;;;8417413;28;19919;-70
2022/08/22 04:14:58;;;;;;;;;;;18.50;99.90;;;;;;8416919;28;19920;-69
2022/08/22 04:19:06;;;;;;;;;;;18.50;99.90;;;;;;8407531;28;19950;-69
2022/08/22 04:23:20;;;;;;;;;;;18.40;99.90;;;;;;8427333;28;19931;-69
2022/08/22 04:27:35;;;;;;;;;;;18.40;99.90;;;;;;8411255;28;19927;-69
2022/08/22 04:31:45;;;;;;;;;;;18.40;99.90;;;;;;8410446;28;19943;-69
2022/08/22 04:36:05;;;;;;;;;;;18.40;99.90;;;;;;8417901;28;19924;-69
2022/08/22 04:40:21;;;;;;;;;;;18.40;99.90;;;;;;8414198;28;19924;-69
2022/08/22 04:44:26;;;;;;;;;;;18.40;99.90;;;;;;8425299;28;19965;-69
2022/08/22 04:48:36;;;;;;;;;;;18.40;99.90;;;;;;8413520;28;19982;-69
2022/08/22 04:52:39;;;;;;;;;;;18.40;99.90;;;;;;8426985;28;20045;-69
2022/08/22 04:56:40;;;;;;;;;;;18.40;99.90;;;;;;8414637;28;19927;-69
2022/08/22 05:01:03;;;;;;;;;;;18.40;99.90;;;;;;8406797;28;19920;-69
2022/08/22 05:05:09;;;;;;;;;;;18.30;99.90;;;;;;8428031;28;19920;-69
2022/08/22 05:09:15;;;;;;;;;;;18.30;99.90;;;;;;8427212;28;19919;-69
2022/08/22 05:13:23;;;;;;;;;;;18.30;99.90;;;;;;8397812;28;19928;-69
2022/08/22 05:17:26;;;;;;;;;;;18.30;99.90;;;;;;8413345;28;19928;-69
2022/08/22 05:21:30;;;;;;;;;;;18.30;99.90;;;;;;8428077;28;19919;-69
2022/08/22 05:25:33;;;;;;;;;;;18.30;99.90;;;;;;8410606;28;19924;-69
2022/08/22 05:29:38;;;;;;;;;;;18.30;99.90;;;;;;8431229;28;19963;-69
2022/08/22 05:33:48;;;;;;;;;;;18.30;99.90;;;;;;8409645;28;20014;-69
2022/08/22 05:37:52;;;;;;;;;;;18.30;99.90;;;;;;8412877;28;19923;-69
2022/08/22 05:41:55;;;;;;;;;;;18.30;99.90;;;;;;8425217;28;19920;-69
2022/08/22 05:45:57;;;;;;;;;;;18.30;99.90;;;;;;8427048;28;19994;-69
2022/08/22 05:50:01;;;;;;;;;;;18.40;99.90;;;;;;8398668;28;19920;-69
2022/08/22 05:54:18;;;;;;;;;;;18.40;99.90;;;;;;8391423;28;19921;-69
2022/08/22 05:58:29;;;;;;;;;;;18.40;99.90;;;;;;8415385;28;19920;-69
2022/08/22 06:02:49;;;;;;;;;;;18.40;99.90;;;;;;8416643;28;19920;-69
2022/08/22 06:06:53;;;;;;;;;;;18.40;99.90;;;;;;8419170;28;19920;-69
2022/08/22 06:10:56;;;;;;;;;;;18.50;99.90;;;;;;8415971;28;19927;-69
2022/08/22 06:14:58;;;;;;;;;;;18.50;99.90;;;;;;8415088;28;19932;-69
2022/08/22 06:19:01;;;;;;;;;;;18.50;99.90;;;;;;8404549;28;19920;-69
2022/08/22 06:23:05;;;;;;;;;;;18.50;99.90;;;;;;8420589;28;19924;-69
2022/08/22 06:27:11;;;;;;;;;;;18.60;99.90;;;;;;8424492;28;19927;-69
2022/08/22 06:31:16;;;;;;;;;;;18.60;99.90;;;;;;8411965;28;19943;-69
2022/08/22 06:35:23;;;;;;;;;;;18.70;99.90;;;;;;8419227;28;19931;-69
2022/08/22 06:39:32;;;;;;;;;;;18.60;99.90;;;;;;8419180;28;20000;-69
2022/08/22 06:43:38;;;;;;;;;;;18.70;99.90;;;;;;8418268;28;20401;-69
2022/08/22 06:47:45;;;;;;;;;;;18.70;99.90;;;;;;8423750;28;19924;-69
2022/08/22 06:51:51;;;;;;;;;;;18.70;99.90;;;;;;8423418;28;20327;-69
2022/08/22 06:55:55;;;;;;;;;;;18.70;99.90;;;;;;8410182;28;19920;-70
2022/08/22 06:59:57;;;;;;;;;;;18.80;99.90;;;;;;8428697;28;19920;-69
2022/08/22 07:04:09;;;;;;;;;;;18.80;99.90;;;;;;8426091;28;19927;-69
2022/08/22 07:08:14;;;;;;;;;;;18.90;99.90;;;;;;8426572;28;19944;-69
2022/08/22 07:12:18;;;;;;;;;;;19.00;99.90;;;;;;8431175;28;19920;-69
2022/08/22 07:16:31;;;;;;;;;;;19.00;99.90;;;;;;8424441;28;20271;-70
2022/08/22 07:20:37;;;;;;;;;;;19.20;99.90;;;;;;8431299;28;19920;-69
2022/08/22 07:24:43;;;;;;;;;;;19.40;99.90;;;;;;8420812;28;20400;-69
2022/08/22 07:28:50;;;;;;;;;;;19.60;99.90;;;;;;8420326;28;19920;-69
2022/08/22 07:33:00;;;;;;;;;;;19.80;99.90;;;;;;8420210;28;19920;-69
2022/08/22 07:37:29;;;;;;;;;;;20.00;99.90;;;;;;8420578;28;20225;-69
2022/08/22 07:42:03;;;;;;;;;;;20.20;99.90;;;;;;8418000;28;19927;-69
2022/08/22 07:46:26;;;;;;;;;;;20.40;99.90;;;;;;8387108;28;19927;-69
2022/08/22 07:50:29;;;;;;;;;;;20.60;99.90;;;;;;8428700;28;19943;-69
2022/08/22 07:54:51;;;;;;;;;;;20.70;99.90;;;;;;8420249;28;19920;-69
2022/08/22 07:59:03;;;;;;;;;;;20.80;99.90;;;;;;8415507;28;19920;-69
2022/08/22 08:03:10;;;;;;;;;;;20.90;99.90;;;;;;8415430;28;19958;-69
2022/08/22 08:07:13;;;;;;;;;;;21.00;99.90;;;;;;8419831;28;19924;-69
2022/08/22 08:11:15;;;;;;;;;;;21.00;99.90;;;;;;8433944;28;19942;-69
2022/08/22 08:15:19;;;;;;;;;;;21.10;99.90;;;;;;8431523;28;19920;-69
2022/08/22 08:19:22;;;;;;;;;;;21.20;99.90;;;;;;8424088;28;19951;-69
2022/08/22 08:23:25;;;;;;;;;;;21.30;99.90;;;;;;8419682;28;20372;-69
2022/08/22 08:31:55;;;;;;;;;;;21.40;99.90;;;;;;8420369;28;20470;-69
2022/08/22 08:36:04;;;;;;;;;;;21.40;99.90;;;;;;8423047;28;19935;-69
2022/08/22 08:40:14;;;;;;;;;;;21.50;99.90;;;;;;8422126;28;19920;-69
2022/08/22 08:44:16;;;;;;;;;;;21.50;99.90;;;;;;8412865;28;20346;-69
2022/08/22 08:48:27;;;;;;;;;;;21.60;99.90;;;;;;8423050;28;19927;-69
2022/08/22 08:52:47;;;;;;;;;;;21.60;99.90;;;;;;8433070;28;19920;-69
2022/08/22 08:56:53;;;;;;;;;;;21.70;99.90;;;;;;8419204;28;19938;-69
2022/08/22 09:01:00;;;;;;;;;;;21.80;99.90;;;;;;8411354;28;19985;-69
2022/08/22 09:05:02;;;;;;;;;;;21.90;99.90;;;;;;8422023;28;19974;-69
2022/08/22 09:09:29;;;;;;;;;;;22.00;99.90;;;;;;8424015;28;19924;-70
2022/08/22 09:13:31;;;;;;;;;;;22.20;99.90;;;;;;8419090;28;20264;-70
2022/08/22 09:17:37;;;;;;;;;;;22.20;99.90;;;;;;8416651;28;20351;-69
2022/08/22 09:21:44;;;;;;;9.15;4.28;;;22.30;99.90;;;;;;8416437;28;20626;-69
2022/08/22 09:26:08;;;;;;;;;;;22.40;99.90;;;;;;8422031;28;19971;-69
2022/08/22 09:30:11;;;;;;;;;;;22.50;99.90;;;;;;8420386;28;19931;-69
2022/08/22 09:34:18;;;;;;;;;;;22.50;99.90;;;;;;8426098;28;19920;-69
2022/08/22 09:38:43;;;;;;;;;;;22.50;99.90;;;;;;8400496;28;20307;-69
2022/08/22 09:42:51;;;;;;;;;;;22.70;99.90;;;;;;8422007;28;20042;-69
2022/08/22 09:46:53;;;;;;;;;;;22.70;99.90;;;;;;8425884;28;19934;-69
2022/08/22 09:51:02;;;;;;;;;;;22.90;99.90;;;;;;8415984;28;19943;-69
2022/08/22 09:55:43;;;;;;;;;;;23.00;99.90;;;;;;8415332;28;20271;-69
2022/08/22 09:59:51;;;;;;;;;;;23.00;99.90;;;;;;8418307;28;19920;-69
2022/08/22 10:03:58;;;;;;;;;;;23.00;99.90;;;;;;8413452;28;20401;-69
2022/08/22 10:08:04;;;;;;;;;;;23.00;99.90;;;;;;8418849;28;19947;-69
2022/08/22 10:12:09;;;;;;;;;;;23.10;99.90;;;;;;8413045;28;21784;-69
2022/08/22 10:16:42;;;;;;;;;;;23.20;99.90;;;;;;8400771;28;20011;-69
2022/08/22 10:21:03;;;;;;;;;;;23.20;99.90;;;;;;8394423;28;20117;-69
2022/08/22 10:25:30;;;;;;;;;;;23.20;99.90;;;;;;8407700;28;20304;-69
2022/08/22 10:29:41;;;;;;;;;;;23.20;99.90;;;;;;8395615;28;20414;-70
2022/08/22 10:34:02;;;;;;;;;;;23.20;99.90;;;;;;8413140;28;20351;-69
2022/08/22 10:38:11;;;;;;;;;;;23.20;99.90;;;;;;8396096;28;19986;-69
2022/08/22 10:42:20;;;;;;;;;;;23.30;99.90;;;;;;8409799;28;19924;-69
2022/08/22 10:46:29;;;;;;;;;;;23.40;99.90;;;;;;8417522;28;19942;-69
2022/08/22 10:50:41;;;;;;;;;;;23.50;99.90;;;;;;8414293;28;19920;-69
2022/08/22 10:54:47;;;;;;;;;;;23.60;99.90;;;;;;8418028;28;19991;-69
2022/08/22 10:58:54;;;;;;;;;;;23.60;99.90;;;;;;8433976;28;19927;-69
2022/08/22 11:03:14;;;;;;;;;;;23.70;99.90;;;;;;8432500;28;19920;-69
2022/08/22 11:07:27;;;;;;;;;;;23.80;99.90;;;;;;8431451;28;19975;-69
2022/08/22 11:11:32;;;;;;;;;;;23.90;99.90;;;;;;8416801;28;19924;-69
2022/08/22 11:15:56;;;;;;;;;;;23.90;99.90;;;;;;8425389;28;19927;-69
2022/08/22 11:20:10;;;;;;;;;;;23.90;99.90;;;;;;8425684;28;19927;-69
2022/08/22 11:24:32;;;;;;;;;;;23.80;99.90;;;;;;8415511;28;19946;-69
2022/08/22 11:28:55;;;;;;;;;;;23.80;99.90;;;;;;8428877;28;19964;-69
2022/08/22 11:32:56;;;;;;;;;;;23.90;99.90;;;;;;8434200;28;19921;-69
2022/08/22 11:37:17;;;;;;;;;;;24.20;99.90;;;;;;8427465;28;19928;-69
2022/08/22 11:41:22;;;;;;;;;;;24.30;99.90;;;;;;8426119;28;19919;-69
2022/08/22 11:45:27;;;;;;;;;;;24.30;99.90;;;;;;8442459;28;19920;-69
2022/08/22 11:49:49;;;;;;;;;;;24.20;99.90;;;;;;8428840;28;19920;-69
2022/08/22 11:54:08;;;;;;;;;;;24.20;99.90;;;;;;8414785;28;19930;-69
2022/08/22 11:58:22;;;;;;;;;;;24.20;99.90;;;;;;8410077;28;19927;-69
2022/08/22 12:02:37;;;;;;;;;;;24.30;99.90;;;;;;8420590;28;20295;-69
2022/08/22 12:06:47;;;;;;;;;;;24.40;99.90;;;;;;8420795;28;19994;-69
2022/08/22 12:10:56;;;;;;;;;;;24.50;99.90;;;;;;8434384;28;19920;-70
2022/08/22 12:15:04;;;;;;;;;;;24.50;99.90;;;;;;8419464;28;20261;-70
2022/08/22 12:19:05;;;;;;;;;;;24.50;99.90;;;;;;8421216;28;20367;-70
2022/08/22 12:23:07;;;;;;;;;;;24.50;99.90;;;;;;8419874;28;19999;-70
2022/08/22 12:27:38;;;;;;;;;;;24.50;99.90;;;;;;8428199;28;20247;-69
2022/08/22 12:31:45;;;;;;;;;;;24.40;99.90;;;;;;8414342;28;19920;-69
2022/08/22 12:36:05;;;;;;;;;;;24.40;99.90;;;;;;8426030;28;20379;-70
2022/08/22 12:40:10;;;;;;;;;;;24.30;99.90;;;;;;8431977;27;19924;-70
2022/08/22 12:44:17;;;;;;;;;;;24.30;99.90;;;;;;8426659;28;19928;-70
2022/08/22 12:48:37;;;;;;;;;;;24.30;99.90;;;;;;8421575;28;19920;-69
2022/08/22 12:52:49;;;;;;;;;;;24.30;99.90;;;;;;8424429;28;19994;-69
2022/08/22 12:56:56;;;;;;;;;;;24.30;99.90;;;;;;8425711;28;19919;-70
2022/08/22 13:01:00;;;;;;;;;;;24.40;99.90;;;;;;8417101;28;19934;-69
2022/08/22 13:05:17;;;;;;;;;;;24.40;99.90;;;;;;8437059;28;19936;-69
2022/08/22 13:09:31;;;;;;;;;;;24.40;99.90;;;;;;8428626;28;19920;-69
2022/08/22 13:13:36;;;;;;;;;;;24.50;99.90;;;;;;8413441;28;19920;-70
2022/08/22 13:17:42;;;;;;;;;;;24.60;99.90;;;;;;8435582;28;19920;-69
2022/08/22 13:21:47;;;;;;;;;;;24.70;99.90;;;;;;8418823;28;19927;-69
2022/08/22 13:25:58;;;;;;;;;;;24.80;99.90;;;;;;8427144;28;20373;-70
2022/08/22 13:30:04;;;;;;;;;;;24.80;99.90;;;;;;8412314;28;19947;-69
2022/08/22 13:34:25;;;;;;;;;;;24.80;99.90;;;;;;8430192;28;20397;-70
2022/08/22 13:38:28;;;;;;;;;;;24.70;99.90;;;;;;8407327;28;20260;-69
2022/08/22 13:42:32;;;;;;;;;;;24.70;99.90;;;;;;8417431;28;19920;-70
2022/08/22 13:46:35;;;;;;;;;;;24.70;99.90;;;;;;8410839;28;19931;-70
2022/08/22 13:50:58;;;;;;;;;;;24.70;99.90;;;;;;8429125;28;19926;-69
2022/08/22 13:55:05;;;;;;;;;;;24.70;99.90;;;;;;8435058;28;19943;-70
2022/08/22 13:59:16;;;;;;;;;;;24.80;99.90;;;;;;8408772;28;19943;-70
2022/08/22 14:03:40;;;;;;;;;;;24.90;99.90;;;;;;8424821;28;19924;-70
2022/08/22 14:07:45;;;;;;;;;;;25.10;99.90;;;;;;8426409;28;19927;-69
2022/08/22 14:11:52;;;;;;;;;;;25.30;99.90;;;;;;8422867;28;19920;-69
2022/08/22 14:15:58;;;;;;;;;;;25.50;99.90;;;;;;8426637;28;20363;-69
2022/08/22 14:20:05;;;;;;;;;;;25.50;99.90;;;;;;8435097;27;19920;-69
2022/08/22 14:24:07;;;;;;;;;;;25.50;99.90;;;;;;8420057;28;19924;-70
2022/08/22 14:28:26;;;;;;;;;;;25.50;99.90;;;;;;8420148;28;19932;-69
2022/08/22 14:32:33;;;;;;;;;;;25.60;99.90;;;;;;8424686;28;19943;-69
2022/08/22 14:36:44;;;;;;;;;;;25.60;99.90;;;;;;8417372;28;19921;-70
2022/08/22 14:40:51;;;;;;;;;;;25.60;99.90;;;;;;8414101;28;19934;-69
2022/08/22 14:45:01;;;;;;;;;;;25.70;99.90;;;;;;8426660;28;19920;-69
2022/08/22 14:49:10;;;;;;;;;;;25.70;99.90;;;;;;8418515;28;19984;-69
2022/08/22 14:53:17;;;;;;;;;;;25.70;99.90;;;;;;8412474;28;20291;-70
2022/08/22 14:57:19;;;;;;;;;;;25.70;99.90;;;;;;8419793;28;19947;-69
2022/08/22 15:01:23;;;;;;;;;;;25.70;99.90;;;;;;8401696;28;20456;-70
2022/08/22 15:05:25;;;;;;;;;;;25.80;99.90;;;;;;8398627;28;19938;-69
2022/08/22 15:09:33;;;;;;;;;;;25.80;99.90;;;;;;8438754;28;20402;-70
2022/08/22 15:13:36;;;;;;;;;;;26.00;99.90;;;;;;8435235;28;19920;-69
2022/08/22 15:17:43;;;;;;;;;;;26.10;99.90;;;;;;8428749;28;19928;-69
2022/08/22 15:21:45;;;;;;;;;;;26.20;99.90;;;;;;8413410;28;20272;-70
2022/08/22 15:25:58;;;;;;;;;;;26.40;99.90;;;;;;8410429;28;19939;-70
2022/08/22 15:30:04;;;;;;;;;;;26.60;99.90;;;;;;8396060;28;19920;-70
2022/08/22 15:34:08;;;;;;;;;;;26.90;99.90;;;;;;8394715;28;19924;-70
2022/08/22 15:38:42;;;;;;;;;;;27.00;99.90;;;;;;8385154;28;20391;-70
2022/08/22 15:42:46;;;;;;;;;;;27.10;99.90;;;;;;8363800;28;19929;-70
2022/08/22 15:46:50;;;;;;;;;;;27.20;99.90;;;;;;8403727;28;19940;-70
2022/08/22 15:50:55;;;;;;;;;;;27.30;99.90;;;;;;8408592;28;19928;-70
2022/08/22 15:55:05;;;;;;;;;;;27.30;99.90;;;;;;8397751;28;19928;-70
2022/08/22 15:59:24;;;;;;;;;;;27.40;99.90;;;;;;8409407;28;19928;-70
2022/08/22 16:03:27;;;;;;;;;;;27.90;99.90;;;;;;8411483;28;19924;-70
2022/08/22 16:07:34;;;;;;;;;;;28.50;99.90;;;;;;8413173;28;19920;-70
2022/08/22 16:11:37;;;;;;;;;;;29.00;99.90;;;;;;8386195;28;19928;-70
2022/08/22 16:15:48;;;;;;;;;;;29.50;99.90;;;;;;8382146;28;19986;-70
2022/08/22 16:20:07;;;;;;;;;;;29.80;99.90;;;;;;8380890;28;20041;-70
2022/08/22 16:24:26;;;;;;;;;;;30.20;99.90;;;;;;8382068;28;20540;-70
2022/08/22 16:28:29;;;;;;;;;;;30.40;99.90;;;;;;8380697;28;20430;-70
2022/08/22 16:32:52;;;;;;;;;;;30.40;99.90;;;;;;8377131;28;20018;-70
2022/08/22 16:37:13;;;;;;;;;;;30.30;99.90;;;;;;8376076;28;20298;-70
2022/08/22 16:41:23;;;;;;;;;;;30.40;99.90;;;;;;8388528;28;19921;-70
2022/08/22 16:45:27;;;;;;;;;;;30.50;99.90;;;;;;8383968;28;19921;-70
2022/08/22 16:49:30;;;;;;;;;;;30.60;99.90;;;;;;8391111;28;19939;-70
2022/08/22 16:53:38;;;;;;;;;;;30.70;99.90;;;;;;8387794;28;19924;-70
2022/08/22 16:57:55;;;;;;;;;;;30.90;99.90;;;;;;8371343;28;20336;-70
2022/08/22 17:02:06;;;;;;;;;;;31.00;99.90;;;;;;8371229;28;20170;-70
2022/08/22 17:06:31;;;;;;;;;;;31.10;99.90;;;;;;8384306;28;21846;-70
2022/08/22 17:10:38;;;;;;;;;;;31.00;99.90;;;;;;8389496;28;19928;-70
2022/08/22 17:14:48;;;;;;;;;;;31.00;99.90;;;;;;8384406;28;19928;-70
2022/08/22 17:19:13;;;;;;;;;;;30.90;99.90;;;;;;8379124;28;19932;-70
2022/08/22 17:23:14;;;;;;;;;;;30.80;99.90;;;;;;8379892;28;19931;-70
2022/08/22 17:27:54;;;;;;;;;;;30.60;99.90;;;;;;8377780;28;20342;-70
2022/08/22 17:31:56;;;;;;;;;;;30.50;99.90;;;;;;8294448;28;19933;-70
2022/08/22 17:36:01;;;;;;;;;;;30.40;99.90;;;;;;8352304;28;19928;-70
2022/08/22 17:40:12;;;;;;;;;;;30.20;99.90;;;;;;8378932;28;19928;-70
2022/08/22 17:44:23;;;;;;;;;;;30.00;99.90;;;;;;8394615;28;20333;-70
2022/08/22 17:48:33;;;;;;;;;;;29.80;99.90;;;;;;8382858;28;20454;-70
2022/08/22 17:52:36;;;;;;;;;;;29.50;99.90;;;;;;8373254;28;19932;-70
2022/08/22 17:56:41;;;;;;;;;;;29.10;99.90;;;;;;8369705;28;19929;-70
2022/08/22 18:00:48;;;;;;;;;;;28.70;99.90;;;;;;8367328;28;19932;-70
2022/08/22 18:04:59;;;;;;;;;;;28.40;99.90;;;;;;8381784;28;19932;-70
2022/08/22 18:09:04;;;;;;;;;;;28.00;99.90;;;;;;8376605;28;19935;-70
2022/08/22 18:13:33;;;;;;;;;;;27.60;99.90;;;;;;8379793;28;20076;-70
2022/08/22 18:18:01;;;;;;;;;;;27.30;99.90;;;;;;8384009;28;20316;-70
2022/08/22 18:22:20;;;;;;;;;;;27.00;99.90;;;;;;8361256;28;19924;-69
2022/08/22 18:26:30;;;;;;;;;;;26.70;99.90;;;;;;8376495;28;19928;-70
2022/08/22 18:30:34;;;;;;;;;;;26.50;99.90;;;;;;8382913;28;19920;-70
2022/08/22 18:34:40;;;;;;;;;;;26.20;99.90;;;;;;8386512;28;19932;-70
2022/08/22 18:38:49;;;;;;;;;;;26.00;99.90;;;;;;8378477;28;19923;-70
2022/08/22 18:43:09;;;;;;;;;;;25.80;99.90;;;;;;8384633;28;20271;-70
2022/08/22 18:47:14;;;;;;;;;;;25.70;99.90;;;;;;8383274;28;19927;-69
2022/08/22 18:51:26;;;;;;;;;;;25.50;99.90;;;;;;8380598;28;19928;-69
2022/08/22 18:55:57;;;;;;;;;;;25.30;99.90;;;;;;8362742;28;19927;-70
2022/08/22 19:00:16;;;;;;;;;;;25.10;99.90;;;;;;8368028;28;19928;-69
2022/08/22 19:04:34;;;;;;;;;;;25.00;99.90;;;;;;8390615;28;19964;-69
2022/08/22 19:08:39;;;;;;;;;;;24.80;99.90;;;;;;8385437;28;19928;-69
2022/08/22 19:12:59;;;;;;;;;;;24.70;99.90;;;;;;8386620;28;19920;-69
2022/08/22 19:17:14;;;;;;;;;;;24.60;99.90;;;;;;8388159;28;20334;-69
2022/08/22 19:25:59;;;;;;;;;;;24.50;99.90;;;;;;8383108;28;19924;-69
2022/08/22 19:30:05;;;;;;;;;;;24.30;99.90;;;;;;8381235;28;19924;-69
2022/08/22 19:34:27;;;;;;;;;;;24.20;99.90;;;;;;8385236;28;19935;-69
2022/08/22 19:38:47;;;;;;;;;;;24.10;99.90;;;;;;8382232;28;19943;-69
2022/08/22 19:42:49;;;;;;;;;;;24.10;99.90;;;;;;8386194;28;19920;-69
2022/08/22 19:47:06;;;;;;;;;;;24.00;99.90;;;;;;8383481;28;19935;-69
2022/08/22 19:51:28;;;;;;;;;;;23.90;99.90;;;;;;8368526;28;20324;-69
2022/08/22 19:55:29;;;;;;;;;;;23.80;99.90;;;;;;8386686;28;19932;-69
2022/08/22 19:59:39;;;;;;;;;;;23.70;99.90;;;;;;8381781;28;19924;-70
2022/08/22 20:03:58;;;;;;;;;;;23.60;99.90;;;;;;8383829;28;19924;-69
2022/08/22 20:08:06;;;;;;;;;;;23.50;99.90;;;;;;8387737;28;19924;-69
2022/08/22 20:12:11;;;;;;;;;;;23.40;99.90;;;;;;8381370;28;20255;-70
2022/08/22 20:16:16;;;;;;;;;;;23.30;99.90;;;;;;8383246;28;19927;-69
2022/08/22 20:20:20;;;;;;;;;;;23.20;99.90;;;;;;8369149;28;19928;-69
2022/08/22 20:24:30;;;;;;;;;;;23.10;99.90;;;;;;8387081;28;19955;-69
2022/08/22 20:28:38;;;;;;;;;;;23.00;99.90;;;;;;8388381;28;19951;-69
2022/08/22 20:32:41;;;;;;;;;;;22.90;99.90;;;;;;8384018;28;19924;-69
2022/08/22 20:36:45;;;;;;;;;;;22.80;99.90;;;;;;8380919;28;19928;-69
2022/08/22 20:41:05;;;;;;;;;;;22.80;99.90;;;;;;8380368;28;19928;-69
2022/08/22 20:45:14;;;;;;;;;;;22.70;99.90;;;;;;8379102;28;19928;-69
2022/08/22 20:49:18;;;;;;;;;;;22.60;99.90;;;;;;8374592;28;20229;-69
2022/08/22 20:53:20;;;;;;;;;;;22.50;99.90;;;;;;8379022;28;19952;-70
2022/08/22 20:57:22;;;;;;;;;;;22.50;99.90;;;;;;8384740;28;19943;-69
2022/08/22 21:01:24;;;;;;;;;;;22.50;99.90;;;;;;8387359;28;19924;-69
2022/08/22 21:05:35;;;;;;;;;;;22.50;99.90;;;;;;8407517;28;19932;-69
2022/08/22 21:13:58;;;;;;;;;;;22.40;99.90;;;;;;8395389;28;20000;-69
2022/08/22 21:17:59;;;;;;;;;;;22.40;99.90;;;;;;8392684;28;19920;-69
2022/08/22 21:22:14;;;;;;;;;;;22.40;99.90;;;;;;8407174;28;19919;-69
2022/08/22 21:26:25;;;;;;;;;;;22.40;99.90;;;;;;8390091;28;19927;-69
2022/08/22 21:30:27;;;;;;;;;;;22.40;99.90;;;;;;8397774;28;19920;-69
2022/08/22 21:34:30;;;;;;;;;;;22.40;99.90;;;;;;8387760;28;19921;-69
2022/08/22 21:38:32;;;;;;;;;;;22.40;99.90;;;;;;8392532;28;19928;-69
2022/08/22 21:42:35;;;;;;;;;;;22.40;99.90;;;;;;8399471;28;19932;-69
2022/08/22 21:46:37;;;;;;;;;;;22.40;99.90;;;;;;8384809;28;20022;-69
2022/08/22 21:50:40;;;;;;;;;;;22.40;99.90;;;;;;8363677;28;19920;-69
2022/08/22 21:54:41;;;;;;;;;;;22.50;99.90;;;;;;8383529;28;19927;-69
2022/08/22 21:58:45;;;;;;;;;;;22.50;99.90;;;;;;8391840;28;19998;-69
2022/08/22 22:02:46;;;;;;;;;;;22.60;99.90;;;;;;8394805;28;19924;-69
2022/08/22 22:06:48;;;;;;;;;;;22.60;99.90;;;;;;8392882;28;19920;-69
2022/08/22 22:10:51;;;;;;;;;;;22.60;99.90;;;;;;8391799;28;19924;-69
2022/08/22 22:14:53;;;;;;;;;;;22.60;99.90;;;;;;8399999;28;19928;-69
2022/08/22 22:18:55;;;;;;;;;;;22.60;99.90;;;;;;8395817;28;19928;-70
2022/08/22 22:22:57;;;;;;;;;;;22.60;99.90;;;;;;8385333;28;19928;-69
2022/08/22 22:27:00;;;;;;;;;;;22.50;99.90;;;;;;8402106;28;19920;-69
2022/08/22 22:31:02;;;;;;;;;;;22.50;99.90;;;;;;8383301;28;20015;-70
2022/08/22 22:35:04;;;;;;;;;;;22.40;99.90;;;;;;8398393;28;19928;-69
2022/08/22 22:39:07;;;;;;;;;;;22.30;99.90;;;;;;8385930;28;19979;-69
2022/08/22 22:43:09;;;;;;;;;;;22.30;99.90;;;;;;8394114;28;19928;-69
2022/08/22 22:47:10;;;;;;;;;;;22.20;99.90;;;;;;8395310;28;19920;-69
2022/08/22 22:51:12;;;;;;;;;;;22.20;99.90;;;;;;8395483;28;19959;-69
2022/08/22 22:55:14;;;;;;;;;;;22.10;99.90;;;;;;8404597;28;19927;-69
2022/08/22 22:59:24;;;;;;;;;;;22.00;99.90;;;;;;8404349;28;19924;-69
2022/08/22 23:03:26;;;;;;;;;;;22.00;99.90;;;;;;8418911;28;19927;-69
2022/08/22 23:07:28;;;;;;;;;;;21.90;99.90;;;;;;8389902;28;20382;-69
2022/08/22 23:11:30;;;;;;;;;;;21.90;99.90;;;;;;8407830;28;19951;-69
2022/08/22 23:15:31;;;;;;;;;;;21.80;99.90;;;;;;8403949;28;19961;-69
2022/08/22 23:19:33;;;;;;;;;;;21.70;99.90;;;;;;8390849;28;20051;-69
2022/08/22 23:23:35;;;;;;;;;;;21.70;99.90;;;;;;8402302;28;19927;-69
2022/08/22 23:27:37;;;;;;;;;;;21.60;99.90;;;;;;8407311;28;19920;-69
2022/08/22 23:31:40;;;;;;;;;;;21.60;99.90;;;;;;8395934;28;20366;-69
2022/08/22 23:35:42;;;;;;;;;;;21.50;99.90;;;;;;8396823;28;19927;-69
2022/08/22 23:39:44;;;;;;;;;;;21.50;99.90;;;;;;8391975;28;19932;-69
2022/08/22 23:43:47;;;;;;;;;;;21.40;99.90;;;;;;8388410;28;22939;-69
2022/08/22 23:47:49;;;;;;;;;;;21.40;99.90;;;;;;8397059;28;19924;-69
2022/08/22 23:51:51;;;;;;;;;;;21.40;99.90;;;;;;8394529;28;19920;-69
2022/08/22 23:55:52;;;;;;;;;;;21.30;99.90;;;;;;8394005;28;20244;-69
2022/08/22 23:59:54;;;;;;;;;;;21.30;99.90;;;;;;8398991;28;19931;-69
